sensor_id;sensor_type;location;lat;lon;timestamp;temperature;humidity
27803;DHT22;15182;48.174;11.562;2023-07-28T00:01:50;22.10;87.60
27803;DHT22;15182;48.174;11.562;2023-07-28T00:04:18;22.10;87.70
27803;DHT22;15182;48.174;11.562;2023-07-28T00:06:46;22.10;87.70
27803;DHT22;15182;48.174;11.562;2023-07-28T00:09:14;22.10;87.90
27803;DHT22;15182;48.174;11.562;2023-07-28T00:11:41;22.00;87.90
27803;DHT22;15182;48.174;11.562;2023-07-28T00:14:11;22.00;88.00
27803;DHT22;15182;48.174;11.562;2023-07-28T00:16:38;22.00;88.30
27803;DHT22;15182;48.174;11.562;2023-07-28T00:19:06;22.00;88.30
27803;DHT22;15182;48.174;11.562;2023-07-28T00:21:34;22.00;88.50
27803;DHT22;15182;48.174;11.562;2023-07-28T00:24:02;21.90;88.60
27803;DHT22;15182;48.174;11.562;2023-07-28T00:26:30;21.90;88.80
27803;DHT22;15182;48.174;11.562;2023-07-28T00:28:57;21.90;89.00
27803;DHT22;15182;48.174;11.562;2023-07-28T00:31:26;21.90;89.20
27803;DHT22;15182;48.174;11.562;2023-07-28T00:33:54;21.90;89.40
27803;DHT22;15182;48.174;11.562;2023-07-28T00:36:23;21.90;89.40
27803;DHT22;15182;48.174;11.562;2023-07-28T00:38:53;21.90;90.10
27803;DHT22;15182;48.174;11.562;2023-07-28T00:41:21;21.90;89.60
27803;DHT22;15182;48.174;11.562;2023-07-28T00:43:49;21.90;89.80
27803;DHT22;15182;48.174;11.562;2023-07-28T00:46:17;21.90;89.90
27803;DHT22;15182;48.174;11.562;2023-07-28T00:48:46;22.00;89.80
27803;DHT22;15182;48.174;11.562;2023-07-28T00:51:14;22.00;90.00
27803;DHT22;15182;48.174;11.562;2023-07-28T00:53:42;22.00;90.00
27803;DHT22;15182;48.174;11.562;2023-07-28T00:56:11;22.00;90.00
27803;DHT22;15182;48.174;11.562;2023-07-28T00:58:39;22.00;90.10
27803;DHT22;15182;48.174;11.562;2023-07-28T01:01:06;22.00;90.00
27803;DHT22;15182;48.174;11.562;2023-07-28T01:03:34;22.00;90.00
27803;DHT22;15182;48.174;11.562;2023-07-28T01:06:13;22.00;90.00
27803;DHT22;15182;48.174;11.562;2023-07-28T01:08:49;22.00;90.00
27803;DHT22;15182;48.174;11.562;2023-07-28T01:11:23;22.00;89.90
27803;DHT22;15182;48.174;11.562;2023-07-28T01:13:51;22.00;89.70
27803;DHT22;15182;48.174;11.562;2023-07-28T01:16:19;22.00;89.60
27803;DHT22;15182;48.174;11.562;2023-07-28T01:18:47;22.00;89.60
27803;DHT22;15182;48.174;11.562;2023-07-28T01:21:22;22.10;89.50
27803;DHT22;15182;48.174;11.562;2023-07-28T01:23:58;22.10;89.50
27803;DHT22;15182;48.174;11.562;2023-07-28T01:26:33;22.10;89.50
27803;DHT22;15182;48.174;11.562;2023-07-28T01:29:03;22.10;89.50
27803;DHT22;15182;48.174;11.562;2023-07-28T01:31:31;22.10;89.40
27803;DHT22;15182;48.174;11.562;2023-07-28T01:33:59;22.10;89.30
27803;DHT22;15182;48.174;11.562;2023-07-28T01:36:27;22.10;89.20
27803;DHT22;15182;48.174;11.562;2023-07-28T01:38:55;22.00;89.10
27803;DHT22;15182;48.174;11.562;2023-07-28T01:41:23;22.00;89.90
27803;DHT22;15182;48.174;11.562;2023-07-28T01:43:52;22.00;89.00
27803;DHT22;15182;48.174;11.562;2023-07-28T01:46:21;22.00;89.00
27803;DHT22;15182;48.174;11.562;2023-07-28T01:48:49;22.00;88.90
27803;DHT22;15182;48.174;11.562;2023-07-28T01:51:17;22.00;88.80
27803;DHT22;15182;48.174;11.562;2023-07-28T01:53:45;22.00;88.70
27803;DHT22;15182;48.174;11.562;2023-07-28T01:56:13;22.00;88.60
27803;DHT22;15182;48.174;11.562;2023-07-28T01:58:41;22.00;88.50
27803;DHT22;15182;48.174;11.562;2023-07-28T02:01:12;22.00;88.50
27803;DHT22;15182;48.174;11.562;2023-07-28T02:03:40;22.00;88.50
27803;DHT22;15182;48.174;11.562;2023-07-28T02:06:08;22.00;88.50
27803;DHT22;15182;48.174;11.562;2023-07-28T02:08:35;22.00;88.30
27803;DHT22;15182;48.174;11.562;2023-07-28T02:11:03;21.90;88.30
27803;DHT22;15182;48.174;11.562;2023-07-28T02:13:33;21.90;88.20
27803;DHT22;15182;48.174;11.562;2023-07-28T02:16:03;21.90;88.30
27803;DHT22;15182;48.174;11.562;2023-07-28T02:18:32;21.90;88.20
27803;DHT22;15182;48.174;11.562;2023-07-28T02:21:00;21.90;88.10
27803;DHT22;15182;48.174;11.562;2023-07-28T02:23:28;21.90;88.20
27803;DHT22;15182;48.174;11.562;2023-07-28T02:25:56;21.90;88.20
27803;DHT22;15182;48.174;11.562;2023-07-28T02:28:24;21.90;88.20
27803;DHT22;15182;48.174;11.562;2023-07-28T02:30:51;21.90;88.10
27803;DHT22;15182;48.174;11.562;2023-07-28T02:33:20;21.90;88.10
27803;DHT22;15182;48.174;11.562;2023-07-28T02:35:49;21.90;88.10
27803;DHT22;15182;48.174;11.562;2023-07-28T02:38:16;21.90;89.00
27803;DHT22;15182;48.174;11.562;2023-07-28T02:40:44;21.80;88.00
27803;DHT22;15182;48.174;11.562;2023-07-28T02:43:12;21.80;87.80
27803;DHT22;15182;48.174;11.562;2023-07-28T02:45:40;21.80;87.70
27803;DHT22;15182;48.174;11.562;2023-07-28T02:48:08;21.80;87.60
27803;DHT22;15182;48.174;11.562;2023-07-28T02:50:36;21.80;87.70
27803;DHT22;15182;48.174;11.562;2023-07-28T02:53:05;21.80;87.80
27803;DHT22;15182;48.174;11.562;2023-07-28T02:55:33;21.70;87.80
27803;DHT22;15182;48.174;11.562;2023-07-28T02:58:01;21.70;87.80
27803;DHT22;15182;48.174;11.562;2023-07-28T03:00:29;21.70;87.80
27803;DHT22;15182;48.174;11.562;2023-07-28T03:02:57;21.70;87.80
27803;DHT22;15182;48.174;11.562;2023-07-28T03:05:25;21.70;87.90
27803;DHT22;15182;48.174;11.562;2023-07-28T03:08:13;21.70;87.80
27803;DHT22;15182;48.174;11.562;2023-07-28T03:10:41;21.70;87.70
27803;DHT22;15182;48.174;11.562;2023-07-28T03:13:09;21.60;87.60
27803;DHT22;15182;48.174;11.562;2023-07-28T03:15:37;21.60;87.70
27803;DHT22;15182;48.174;11.562;2023-07-28T03:18:06;21.60;87.70
27803;DHT22;15182;48.174;11.562;2023-07-28T03:20:34;21.60;87.90
27803;DHT22;15182;48.174;11.562;2023-07-28T03:23:01;21.60;87.80
27803;DHT22;15182;48.174;11.562;2023-07-28T03:25:32;21.60;87.80
27803;DHT22;15182;48.174;11.562;2023-07-28T03:28:00;21.50;87.80
27803;DHT22;15182;48.174;11.562;2023-07-28T03:30:27;21.50;87.80
27803;DHT22;15182;48.174;11.562;2023-07-28T03:32:55;21.50;87.80
27803;DHT22;15182;48.174;11.562;2023-07-28T03:35:24;21.50;87.90
27803;DHT22;15182;48.174;11.562;2023-07-28T03:38:01;21.50;87.90
27803;DHT22;15182;48.174;11.562;2023-07-28T03:40:30;21.50;87.90
27803;DHT22;15182;48.174;11.562;2023-07-28T03:42:59;21.40;87.80
27803;DHT22;15182;48.174;11.562;2023-07-28T03:45:26;21.50;88.00
27803;DHT22;15182;48.174;11.562;2023-07-28T03:47:54;21.40;88.00
27803;DHT22;15182;48.174;11.562;2023-07-28T03:50:22;21.40;88.00
27803;DHT22;15182;48.174;11.562;2023-07-28T03:52:50;21.40;88.10
27803;DHT22;15182;48.174;11.562;2023-07-28T03:55:18;21.40;88.10
27803;DHT22;15182;48.174;11.562;2023-07-28T03:57:47;21.40;88.10
27803;DHT22;15182;48.174;11.562;2023-07-28T04:00:15;21.40;88.20
27803;DHT22;15182;48.174;11.562;2023-07-28T04:02:43;21.40;88.30
27803;DHT22;15182;48.174;11.562;2023-07-28T04:05:11;21.40;88.30
27803;DHT22;15182;48.174;11.562;2023-07-28T04:07:39;21.40;88.50
27803;DHT22;15182;48.174;11.562;2023-07-28T04:10:07;21.40;88.50
27803;DHT22;15182;48.174;11.562;2023-07-28T04:12:35;21.40;88.50
27803;DHT22;15182;48.174;11.562;2023-07-28T04:15:05;21.40;88.60
27803;DHT22;15182;48.174;11.562;2023-07-28T04:17:34;21.40;88.60
27803;DHT22;15182;48.174;11.562;2023-07-28T04:20:02;21.40;88.80
27803;DHT22;15182;48.174;11.562;2023-07-28T04:22:30;21.40;88.90
27803;DHT22;15182;48.174;11.562;2023-07-28T04:24:57;21.50;88.90
27803;DHT22;15182;48.174;11.562;2023-07-28T04:27:25;21.50;89.00
27803;DHT22;15182;48.174;11.562;2023-07-28T04:29:58;21.50;89.20
27803;DHT22;15182;48.174;11.562;2023-07-28T04:32:27;21.50;89.10
27803;DHT22;15182;48.174;11.562;2023-07-28T04:35:00;21.50;89.30
27803;DHT22;15182;48.174;11.562;2023-07-28T04:37:42;21.60;89.40
27803;DHT22;15182;48.174;11.562;2023-07-28T04:40:12;21.60;89.60
27803;DHT22;15182;48.174;11.562;2023-07-28T04:42:40;21.60;89.80
27803;DHT22;15182;48.174;11.562;2023-07-28T04:45:09;21.60;90.20
27803;DHT22;15182;48.174;11.562;2023-07-28T04:47:38;21.60;90.00
27803;DHT22;15182;48.174;11.562;2023-07-28T04:50:09;21.60;90.20
27803;DHT22;15182;48.174;11.562;2023-07-28T04:52:55;21.70;90.20
27803;DHT22;15182;48.174;11.562;2023-07-28T04:55:48;21.70;90.30
27803;DHT22;15182;48.174;11.562;2023-07-28T04:58:16;21.70;90.40
27803;DHT22;15182;48.174;11.562;2023-07-28T05:00:49;21.70;90.40
27803;DHT22;15182;48.174;11.562;2023-07-28T05:03:18;21.70;91.00
27803;DHT22;15182;48.174;11.562;2023-07-28T05:05:52;21.70;90.70
27803;DHT22;15182;48.174;11.562;2023-07-28T05:08:20;21.70;90.70
27803;DHT22;15182;48.174;11.562;2023-07-28T05:10:48;21.80;90.70
27803;DHT22;15182;48.174;11.562;2023-07-28T05:13:16;21.80;90.70
27803;DHT22;15182;48.174;11.562;2023-07-28T05:15:52;21.80;90.80
27803;DHT22;15182;48.174;11.562;2023-07-28T05:18:42;21.80;90.70
27803;DHT22;15182;48.174;11.562;2023-07-28T05:21:29;21.80;90.80
27803;DHT22;15182;48.174;11.562;2023-07-28T05:23:57;21.90;90.80
27803;DHT22;15182;48.174;11.562;2023-07-28T05:26:24;21.90;90.80
27803;DHT22;15182;48.174;11.562;2023-07-28T05:28:52;21.90;90.80
27803;DHT22;15182;48.174;11.562;2023-07-28T05:31:20;21.90;90.80
27803;DHT22;15182;48.174;11.562;2023-07-28T05:33:49;21.90;90.80
27803;DHT22;15182;48.174;11.562;2023-07-28T05:36:20;22.00;90.90
27803;DHT22;15182;48.174;11.562;2023-07-28T05:38:49;22.00;90.90
27803;DHT22;15182;48.174;11.562;2023-07-28T05:41:17;22.00;90.90
27803;DHT22;15182;48.174;11.562;2023-07-28T05:43:46;22.00;91.00
27803;DHT22;15182;48.174;11.562;2023-07-28T05:46:14;22.00;91.10
27803;DHT22;15182;48.174;11.562;2023-07-28T05:48:41;22.10;91.10
27803;DHT22;15182;48.174;11.562;2023-07-28T05:51:11;22.10;91.20
27803;DHT22;15182;48.174;11.562;2023-07-28T05:53:38;22.10;91.20
27803;DHT22;15182;48.174;11.562;2023-07-28T05:56:08;22.20;91.30
27803;DHT22;15182;48.174;11.562;2023-07-28T05:58:35;22.20;91.40
27803;DHT22;15182;48.174;11.562;2023-07-28T06:01:03;22.20;91.40
27803;DHT22;15182;48.174;11.562;2023-07-28T06:04:00;22.20;91.40
27803;DHT22;15182;48.174;11.562;2023-07-28T06:06:32;22.30;91.50
27803;DHT22;15182;48.174;11.562;2023-07-28T06:09:00;22.30;91.60
27803;DHT22;15182;48.174;11.562;2023-07-28T06:11:28;22.40;91.70
27803;DHT22;15182;48.174;11.562;2023-07-28T06:13:56;22.40;91.70
27803;DHT22;15182;48.174;11.562;2023-07-28T06:16:25;22.40;91.70
27803;DHT22;15182;48.174;11.562;2023-07-28T06:18:53;22.50;91.60
27803;DHT22;15182;48.174;11.562;2023-07-28T06:21:23;22.50;91.60
27803;DHT22;15182;48.174;11.562;2023-07-28T06:23:52;22.50;91.70
27803;DHT22;15182;48.174;11.562;2023-07-28T06:26:20;22.60;91.90
27803;DHT22;15182;48.174;11.562;2023-07-28T06:28:47;22.60;91.90
27803;DHT22;15182;48.174;11.562;2023-07-28T06:31:15;22.60;91.90
27803;DHT22;15182;48.174;11.562;2023-07-28T06:33:43;22.70;91.90
27803;DHT22;15182;48.174;11.562;2023-07-28T06:36:11;22.70;91.80
27803;DHT22;15182;48.174;11.562;2023-07-28T06:38:38;22.80;91.60
27803;DHT22;15182;48.174;11.562;2023-07-28T06:41:08;22.80;91.50
27803;DHT22;15182;48.174;11.562;2023-07-28T06:43:35;22.80;91.50
27803;DHT22;15182;48.174;11.562;2023-07-28T06:46:05;22.90;91.50
27803;DHT22;15182;48.174;11.562;2023-07-28T06:48:33;22.90;91.50
27803;DHT22;15182;48.174;11.562;2023-07-28T06:51:02;23.00;91.50
27803;DHT22;15182;48.174;11.562;2023-07-28T06:53:29;23.00;91.40
27803;DHT22;15182;48.174;11.562;2023-07-28T06:55:57;23.10;91.80
27803;DHT22;15182;48.174;11.562;2023-07-28T06:58:26;23.20;91.80
27803;DHT22;15182;48.174;11.562;2023-07-28T07:00:54;23.20;91.30
27803;DHT22;15182;48.174;11.562;2023-07-28T07:03:23;23.30;91.30
27803;DHT22;15182;48.174;11.562;2023-07-28T07:05:51;23.30;91.30
27803;DHT22;15182;48.174;11.562;2023-07-28T07:08:19;23.40;91.80
27803;DHT22;15182;48.174;11.562;2023-07-28T07:10:50;23.50;91.40
27803;DHT22;15182;48.174;11.562;2023-07-28T07:13:18;23.60;91.20
27803;DHT22;15182;48.174;11.562;2023-07-28T07:15:48;23.70;91.50
27803;DHT22;15182;48.174;11.562;2023-07-28T07:18:16;23.70;91.30
27803;DHT22;15182;48.174;11.562;2023-07-28T07:20:44;23.80;91.20
27803;DHT22;15182;48.174;11.562;2023-07-28T07:23:12;23.90;91.50
27803;DHT22;15182;48.174;11.562;2023-07-28T07:25:39;24.00;91.10
27803;DHT22;15182;48.174;11.562;2023-07-28T07:28:09;24.10;91.10
27803;DHT22;15182;48.174;11.562;2023-07-28T07:30:37;24.10;90.80
27803;DHT22;15182;48.174;11.562;2023-07-28T07:33:07;24.20;90.90
27803;DHT22;15182;48.174;11.562;2023-07-28T07:35:36;24.30;90.80
27803;DHT22;15182;48.174;11.562;2023-07-28T07:38:05;24.40;90.80
27803;DHT22;15182;48.174;11.562;2023-07-28T07:40:35;24.40;91.00
27803;DHT22;15182;48.174;11.562;2023-07-28T07:43:03;24.50;91.20
27803;DHT22;15182;48.174;11.562;2023-07-28T07:45:32;24.60;91.10
27803;DHT22;15182;48.174;11.562;2023-07-28T07:47:59;24.80;90.80
27803;DHT22;15182;48.174;11.562;2023-07-28T07:50:29;24.80;90.40
27803;DHT22;15182;48.174;11.562;2023-07-28T07:52:56;24.90;90.10
27803;DHT22;15182;48.174;11.562;2023-07-28T07:55:24;25.00;90.00
27803;DHT22;15182;48.174;11.562;2023-07-28T07:57:52;25.00;89.40
27803;DHT22;15182;48.174;11.562;2023-07-28T08:00:20;25.00;89.00
27803;DHT22;15182;48.174;11.562;2023-07-28T08:02:48;25.10;88.70
27803;DHT22;15182;48.174;11.562;2023-07-28T08:05:16;25.10;88.00
27803;DHT22;15182;48.174;11.562;2023-07-28T08:07:45;25.20;87.80
27803;DHT22;15182;48.174;11.562;2023-07-28T08:10:13;25.20;87.50
27803;DHT22;15182;48.174;11.562;2023-07-28T08:12:41;25.10;87.20
27803;DHT22;15182;48.174;11.562;2023-07-28T08:15:11;25.20;87.70
27803;DHT22;15182;48.174;11.562;2023-07-28T08:17:39;25.20;87.70
27803;DHT22;15182;48.174;11.562;2023-07-28T08:20:07;25.20;87.70
27803;DHT22;15182;48.174;11.562;2023-07-28T08:22:36;25.30;87.50
27803;DHT22;15182;48.174;11.562;2023-07-28T08:25:06;25.40;87.60
27803;DHT22;15182;48.174;11.562;2023-07-28T08:27:34;25.50;87.60
27803;DHT22;15182;48.174;11.562;2023-07-28T08:30:02;25.60;87.60
27803;DHT22;15182;48.174;11.562;2023-07-28T08:32:31;25.80;88.90
27803;DHT22;15182;48.174;11.562;2023-07-28T08:35:00;25.80;87.70
27803;DHT22;15182;48.174;11.562;2023-07-28T08:37:28;25.90;87.60
27803;DHT22;15182;48.174;11.562;2023-07-28T08:39:55;26.00;87.30
27803;DHT22;15182;48.174;11.562;2023-07-28T08:42:25;26.10;86.80
27803;DHT22;15182;48.174;11.562;2023-07-28T08:44:52;26.10;86.60
27803;DHT22;15182;48.174;11.562;2023-07-28T08:47:20;26.20;86.50
27803;DHT22;15182;48.174;11.562;2023-07-28T08:49:48;26.10;86.30
27803;DHT22;15182;48.174;11.562;2023-07-28T08:52:17;26.20;86.50
27803;DHT22;15182;48.174;11.562;2023-07-28T08:54:45;26.20;86.40
27803;DHT22;15182;48.174;11.562;2023-07-28T08:57:13;26.20;87.50
27803;DHT22;15182;48.174;11.562;2023-07-28T08:59:42;26.20;86.50
27803;DHT22;15182;48.174;11.562;2023-07-28T09:02:15;26.30;86.60
27803;DHT22;15182;48.174;11.562;2023-07-28T09:04:44;26.30;86.60
27803;DHT22;15182;48.174;11.562;2023-07-28T09:07:13;26.40;86.40
27803;DHT22;15182;48.174;11.562;2023-07-28T09:09:41;26.40;86.00
27803;DHT22;15182;48.174;11.562;2023-07-28T09:12:09;26.40;85.40
27803;DHT22;15182;48.174;11.562;2023-07-28T09:14:38;26.40;85.10
27803;DHT22;15182;48.174;11.562;2023-07-28T09:17:08;26.40;84.90
27803;DHT22;15182;48.174;11.562;2023-07-28T09:19:50;26.40;84.60
27803;DHT22;15182;48.174;11.562;2023-07-28T09:22:19;26.40;84.30
27803;DHT22;15182;48.174;11.562;2023-07-28T09:24:48;26.40;85.00
27803;DHT22;15182;48.174;11.562;2023-07-28T09:27:20;26.40;86.00
27803;DHT22;15182;48.174;11.562;2023-07-28T09:29:49;26.30;84.80
27803;DHT22;15182;48.174;11.562;2023-07-28T09:32:27;26.30;85.00
27803;DHT22;15182;48.174;11.562;2023-07-28T09:35:06;26.30;84.80
27803;DHT22;15182;48.174;11.562;2023-07-28T09:37:38;26.30;84.40
27803;DHT22;15182;48.174;11.562;2023-07-28T09:40:09;26.20;84.20
27803;DHT22;15182;48.174;11.562;2023-07-28T09:42:38;26.20;84.10
27803;DHT22;15182;48.174;11.562;2023-07-28T09:45:07;26.20;84.30
27803;DHT22;15182;48.174;11.562;2023-07-28T09:47:38;26.20;84.40
27803;DHT22;15182;48.174;11.562;2023-07-28T09:50:07;26.20;85.20
27803;DHT22;15182;48.174;11.562;2023-07-28T09:52:38;26.20;84.40
27803;DHT22;15182;48.174;11.562;2023-07-28T09:55:10;26.20;84.70
27803;DHT22;15182;48.174;11.562;2023-07-28T09:57:43;26.20;84.50
27803;DHT22;15182;48.174;11.562;2023-07-28T10:00:13;26.30;84.50
27803;DHT22;15182;48.174;11.562;2023-07-28T10:02:45;26.40;84.50
27803;DHT22;15182;48.174;11.562;2023-07-28T10:05:14;26.40;84.30
27803;DHT22;15182;48.174;11.562;2023-07-28T10:07:43;26.40;84.10
27803;DHT22;15182;48.174;11.562;2023-07-28T10:10:13;26.50;84.40
27803;DHT22;15182;48.174;11.562;2023-07-28T10:12:46;26.60;84.30
27803;DHT22;15182;48.174;11.562;2023-07-28T10:15:15;26.70;83.60
27803;DHT22;15182;48.174;11.562;2023-07-28T10:17:47;26.70;83.40
27803;DHT22;15182;48.174;11.562;2023-07-28T10:20:37;26.80;83.30
27803;DHT22;15182;48.174;11.562;2023-07-28T10:23:10;26.70;83.00
27803;DHT22;15182;48.174;11.562;2023-07-28T10:25:40;26.70;83.30
27803;DHT22;15182;48.174;11.562;2023-07-28T10:28:27;26.70;83.10
27803;DHT22;15182;48.174;11.562;2023-07-28T10:30:58;26.70;82.70
27803;DHT22;15182;48.174;11.562;2023-07-28T10:33:32;26.70;82.60
27803;DHT22;15182;48.174;11.562;2023-07-28T10:36:12;26.70;82.30
27803;DHT22;15182;48.174;11.562;2023-07-28T10:38:41;26.70;82.40
27803;DHT22;15182;48.174;11.562;2023-07-28T10:41:14;26.70;82.60
27803;DHT22;15182;48.174;11.562;2023-07-28T10:43:43;26.60;82.20
27803;DHT22;15182;48.174;11.562;2023-07-28T10:46:14;26.70;82.60
27803;DHT22;15182;48.174;11.562;2023-07-28T10:48:46;26.70;82.60
27803;DHT22;15182;48.174;11.562;2023-07-28T10:51:20;26.60;82.60
27803;DHT22;15182;48.174;11.562;2023-07-28T10:53:54;26.70;83.20
27803;DHT22;15182;48.174;11.562;2023-07-28T10:56:24;26.70;82.70
27803;DHT22;15182;48.174;11.562;2023-07-28T10:58:56;26.70;82.60
27803;DHT22;15182;48.174;11.562;2023-07-28T11:01:30;26.70;82.20
27803;DHT22;15182;48.174;11.562;2023-07-28T11:04:08;26.80;82.30
27803;DHT22;15182;48.174;11.562;2023-07-28T11:06:38;26.90;82.10
27803;DHT22;15182;48.174;11.562;2023-07-28T11:09:08;27.00;82.50
27803;DHT22;15182;48.174;11.562;2023-07-28T11:11:37;27.10;82.00
27803;DHT22;15182;48.174;11.562;2023-07-28T11:14:06;27.30;81.40
27803;DHT22;15182;48.174;11.562;2023-07-28T11:16:36;27.40;80.90
27803;DHT22;15182;48.174;11.562;2023-07-28T11:19:09;27.50;80.90
27803;DHT22;15182;48.174;11.562;2023-07-28T11:21:38;27.50;79.70
27803;DHT22;15182;48.174;11.562;2023-07-28T11:24:07;27.60;79.60
27803;DHT22;15182;48.174;11.562;2023-07-28T11:26:35;27.60;79.70
27803;DHT22;15182;48.174;11.562;2023-07-28T11:29:04;27.70;79.60
27803;DHT22;15182;48.174;11.562;2023-07-28T11:31:32;27.70;79.90
27803;DHT22;15182;48.174;11.562;2023-07-28T11:34:01;27.70;79.60
27803;DHT22;15182;48.174;11.562;2023-07-28T11:36:30;27.70;79.80
27803;DHT22;15182;48.174;11.562;2023-07-28T11:38:59;27.70;79.60
27803;DHT22;15182;48.174;11.562;2023-07-28T11:41:29;27.80;79.20
27803;DHT22;15182;48.174;11.562;2023-07-28T11:43:58;27.80;79.20
27803;DHT22;15182;48.174;11.562;2023-07-28T11:46:37;27.80;78.90
27803;DHT22;15182;48.174;11.562;2023-07-28T11:49:13;27.80;78.80
27803;DHT22;15182;48.174;11.562;2023-07-28T11:51:46;27.80;79.00
27803;DHT22;15182;48.174;11.562;2023-07-28T11:54:17;27.70;79.10
27803;DHT22;15182;48.174;11.562;2023-07-28T11:56:49;27.70;79.10
27803;DHT22;15182;48.174;11.562;2023-07-28T11:59:19;27.70;80.40
27803;DHT22;15182;48.174;11.562;2023-07-28T12:01:54;27.60;78.60
27803;DHT22;15182;48.174;11.562;2023-07-28T12:04:22;27.60;77.80
27803;DHT22;15182;48.174;11.562;2023-07-28T12:07:03;27.60;78.50
27803;DHT22;15182;48.174;11.562;2023-07-28T12:09:33;27.50;78.30
27803;DHT22;15182;48.174;11.562;2023-07-28T12:12:00;27.50;79.30
27803;DHT22;15182;48.174;11.562;2023-07-28T12:14:32;27.50;78.50
27803;DHT22;15182;48.174;11.562;2023-07-28T12:17:01;27.60;78.60
27803;DHT22;15182;48.174;11.562;2023-07-28T12:19:29;27.60;78.20
27803;DHT22;15182;48.174;11.562;2023-07-28T12:21:56;27.60;78.70
27803;DHT22;15182;48.174;11.562;2023-07-28T12:24:25;27.70;78.60
27803;DHT22;15182;48.174;11.562;2023-07-28T12:26:53;27.70;78.50
27803;DHT22;15182;48.174;11.562;2023-07-28T12:29:22;27.70;78.50
27803;DHT22;15182;48.174;11.562;2023-07-28T12:31:50;27.80;79.10
27803;DHT22;15182;48.174;11.562;2023-07-28T12:34:18;27.80;78.20
27803;DHT22;15182;48.174;11.562;2023-07-28T12:36:45;27.80;78.20
27803;DHT22;15182;48.174;11.562;2023-07-28T12:39:13;27.80;78.20
27803;DHT22;15182;48.174;11.562;2023-07-28T12:41:42;27.70;78.10
27803;DHT22;15182;48.174;11.562;2023-07-28T12:44:11;27.70;77.50
27803;DHT22;15182;48.174;11.562;2023-07-28T12:46:39;27.60;77.80
27803;DHT22;15182;48.174;11.562;2023-07-28T12:49:07;27.60;78.70
27803;DHT22;15182;48.174;11.562;2023-07-28T12:51:35;27.60;78.00
27803;DHT22;15182;48.174;11.562;2023-07-28T12:54:03;27.70;77.80
27803;DHT22;15182;48.174;11.562;2023-07-28T12:56:32;27.70;77.70
27803;DHT22;15182;48.174;11.562;2023-07-28T12:59:01;27.80;77.80
27803;DHT22;15182;48.174;11.562;2023-07-28T13:01:29;27.80;77.70
27803;DHT22;15182;48.174;11.562;2023-07-28T13:03:57;27.90;77.40
27803;DHT22;15182;48.174;11.562;2023-07-28T13:06:25;27.90;77.00
27803;DHT22;15182;48.174;11.562;2023-07-28T13:08:53;27.90;77.30
27803;DHT22;15182;48.174;11.562;2023-07-28T13:11:20;27.90;77.40
27803;DHT22;15182;48.174;11.562;2023-07-28T13:13:48;27.90;77.50
27803;DHT22;15182;48.174;11.562;2023-07-28T13:16:17;27.90;77.80
27803;DHT22;15182;48.174;11.562;2023-07-28T13:18:45;27.90;78.50
27803;DHT22;15182;48.174;11.562;2023-07-28T13:21:13;27.90;77.20
27803;DHT22;15182;48.174;11.562;2023-07-28T13:23:41;27.90;76.90
27803;DHT22;15182;48.174;11.562;2023-07-28T13:26:08;27.90;77.00
27803;DHT22;15182;48.174;11.562;2023-07-28T13:28:36;27.90;77.30
27803;DHT22;15182;48.174;11.562;2023-07-28T13:31:06;27.90;77.30
27803;DHT22;15182;48.174;11.562;2023-07-28T13:33:35;27.90;77.40
27803;DHT22;15182;48.174;11.562;2023-07-28T13:36:03;27.90;77.10
27803;DHT22;15182;48.174;11.562;2023-07-28T13:38:34;27.90;77.20
27803;DHT22;15182;48.174;11.562;2023-07-28T13:41:04;27.90;77.20
27803;DHT22;15182;48.174;11.562;2023-07-28T13:43:33;27.90;77.30
27803;DHT22;15182;48.174;11.562;2023-07-28T13:46:02;27.90;77.40
27803;DHT22;15182;48.174;11.562;2023-07-28T13:48:31;27.90;77.50
27803;DHT22;15182;48.174;11.562;2023-07-28T13:51:00;27.80;77.70
27803;DHT22;15182;48.174;11.562;2023-07-28T13:53:28;27.80;78.30
27803;DHT22;15182;48.174;11.562;2023-07-28T13:55:55;27.80;77.40
27803;DHT22;15182;48.174;11.562;2023-07-28T13:58:23;27.80;77.70
27803;DHT22;15182;48.174;11.562;2023-07-28T14:00:51;27.80;77.20
27803;DHT22;15182;48.174;11.562;2023-07-28T14:03:19;27.80;76.80
27803;DHT22;15182;48.174;11.562;2023-07-28T14:05:47;27.70;76.60
27803;DHT22;15182;48.174;11.562;2023-07-28T14:08:16;27.70;76.40
27803;DHT22;15182;48.174;11.562;2023-07-28T14:10:44;27.70;76.20
27803;DHT22;15182;48.174;11.562;2023-07-28T14:13:13;27.70;76.40
27803;DHT22;15182;48.174;11.562;2023-07-28T14:15:40;27.60;76.30
27803;DHT22;15182;48.174;11.562;2023-07-28T14:18:08;27.60;76.40
27803;DHT22;15182;48.174;11.562;2023-07-28T14:20:36;27.60;76.10
27803;DHT22;15182;48.174;11.562;2023-07-28T14:23:22;27.50;76.00
27803;DHT22;15182;48.174;11.562;2023-07-28T14:25:51;27.50;76.00
27803;DHT22;15182;48.174;11.562;2023-07-28T14:28:19;27.40;76.30
27803;DHT22;15182;48.174;11.562;2023-07-28T14:30:47;27.40;77.70
27803;DHT22;15182;48.174;11.562;2023-07-28T14:33:18;27.40;78.80
27803;DHT22;15182;48.174;11.562;2023-07-28T14:35:48;27.30;79.90
27803;DHT22;15182;48.174;11.562;2023-07-28T14:38:16;27.20;80.30
27803;DHT22;15182;48.174;11.562;2023-07-28T14:40:45;27.10;80.80
27803;DHT22;15182;48.174;11.562;2023-07-28T14:43:15;27.00;81.70
27803;DHT22;15182;48.174;11.562;2023-07-28T14:45:43;26.90;82.00
27803;DHT22;15182;48.174;11.562;2023-07-28T14:48:11;26.80;82.60
27803;DHT22;15182;48.174;11.562;2023-07-28T14:50:38;26.70;83.10
27803;DHT22;15182;48.174;11.562;2023-07-28T14:53:27;26.70;84.00
27803;DHT22;15182;48.174;11.562;2023-07-28T14:55:57;26.60;84.40
27803;DHT22;15182;48.174;11.562;2023-07-28T14:58:25;26.60;84.40
27803;DHT22;15182;48.174;11.562;2023-07-28T15:00:53;26.60;84.60
27803;DHT22;15182;48.174;11.562;2023-07-28T15:03:21;26.60;85.10
27803;DHT22;15182;48.174;11.562;2023-07-28T15:05:49;26.60;85.40
27803;DHT22;15182;48.174;11.562;2023-07-28T15:08:17;26.60;85.40
27803;DHT22;15182;48.174;11.562;2023-07-28T15:10:44;26.60;85.70
27803;DHT22;15182;48.174;11.562;2023-07-28T15:13:14;26.60;84.90
27803;DHT22;15182;48.174;11.562;2023-07-28T15:15:41;26.60;85.00
27803;DHT22;15182;48.174;11.562;2023-07-28T15:18:09;26.60;86.20
27803;DHT22;15182;48.174;11.562;2023-07-28T15:20:37;26.60;85.40
27803;DHT22;15182;48.174;11.562;2023-07-28T15:23:05;26.70;85.40
27803;DHT22;15182;48.174;11.562;2023-07-28T15:25:33;26.70;86.00
27803;DHT22;15182;48.174;11.562;2023-07-28T15:28:00;26.70;86.20
27803;DHT22;15182;48.174;11.562;2023-07-28T15:30:30;26.80;86.20